createdAt,value
2018-04-09T00:00:13.300Z,21.20
2018-04-09T00:01:13.209Z,22.00
2018-04-09T00:02:13.319Z,24.50
2018-04-09T00:03:13.231Z,24.80
2018-04-09T00:04:13.348Z,23.20
2018-04-09T00:05:13.259Z,26.00
2018-04-09T00:06:13.347Z,24.80
2018-04-09T00:07:13.278Z,24.80
2018-04-09T00:08:13.361Z,25.20
2018-04-09T00:09:13.313Z,24.40
2018-04-09T00:10:13.376Z,29.80
2018-04-09T00:11:13.328Z,23.70
2018-04-09T00:12:13.493Z,26.40
2018-04-09T00:13:13.349Z,29.10
2018-04-09T00:14:13.496Z,24.90
2018-04-09T00:15:13.384Z,24.20
2018-04-09T00:16:13.532Z,24.40
2018-04-09T00:17:13.408Z,25.40
2018-04-09T00:18:13.538Z,29.00
2018-04-09T00:19:13.438Z,23.50
2018-04-09T00:20:13.551Z,23.00
2018-04-09T00:21:13.463Z,27.30
2018-04-09T00:22:13.554Z,25.80
2018-04-09T00:23:13.482Z,24.90
2018-04-09T00:24:13.582Z,24.00
2018-04-09T00:25:13.523Z,21.80
2018-04-09T00:26:13.687Z,24.00
2018-04-09T00:27:13.537Z,26.80
2018-04-09T00:28:13.709Z,26.30
2018-04-09T00:29:13.559Z,22.90
2018-04-09T00:30:13.718Z,25.00
2018-04-09T00:31:13.588Z,26.20
2018-04-09T00:32:13.731Z,26.10
2018-04-09T00:33:13.605Z,26.70
2018-04-09T00:34:13.752Z,25.30
2018-04-09T00:35:13.632Z,23.70
2018-04-09T00:36:13.753Z,27.60
2018-04-09T00:37:13.657Z,27.90
2018-04-09T00:38:13.776Z,23.40
2018-04-09T00:39:13.693Z,25.50
2018-04-09T00:40:13.785Z,20.90
2018-04-09T00:41:13.711Z,26.80
2018-04-09T00:42:13.792Z,28.90
2018-04-09T00:43:13.740Z,22.50
2018-04-09T00:44:13.921Z,25.00
2018-04-09T00:45:13.758Z,22.00
2018-04-09T00:46:14.845Z,23.00
2018-04-09T00:47:13.785Z,18.30
2018-04-09T00:48:13.938Z,20.70
2018-04-09T00:49:13.810Z,21.00
2018-04-09T00:50:13.956Z,21.50
2018-04-09T00:51:13.836Z,23.90
2018-04-09T00:52:13.964Z,22.70
2018-04-09T00:53:13.863Z,22.90
2018-04-09T00:54:13.989Z,26.10
2018-04-09T00:55:13.883Z,29.50
2018-04-09T00:56:13.995Z,22.30
2018-04-09T00:57:13.915Z,25.80
2018-04-09T00:58:14.004Z,22.00
2018-04-09T00:59:13.937Z,21.30
2018-04-09T01:00:14.127Z,26.30
2018-04-09T01:01:13.965Z,23.50
2018-04-09T01:02:14.136Z,19.20
2018-04-09T01:03:13.990Z,19.60
2018-04-09T01:04:14.154Z,26.90
2018-04-09T01:05:14.018Z,17.40
2018-04-09T01:06:14.167Z,22.40
2018-04-09T01:07:14.029Z,23.60
2018-04-09T01:08:14.174Z,18.30
2018-04-09T01:09:14.062Z,19.70
2018-04-09T01:10:14.186Z,21.10
2018-04-09T01:11:14.087Z,25.90
2018-04-09T01:12:14.203Z,23.00
2018-04-09T01:13:14.110Z,22.20
2018-04-09T01:14:14.218Z,25.80
2018-04-09T01:15:14.134Z,28.20
2018-04-09T01:16:14.228Z,23.50
2018-04-09T01:17:14.157Z,24.70
2018-04-09T01:18:14.346Z,26.20
2018-04-09T01:19:14.184Z,26.90
2018-04-09T01:20:15.283Z,27.20
2018-04-09T01:21:14.212Z,21.60
2018-04-09T01:22:14.373Z,21.20
2018-04-09T01:23:14.234Z,20.40
2018-04-09T01:24:14.386Z,28.50
2018-04-09T01:25:14.260Z,23.30
2018-04-09T01:26:14.399Z,22.30
2018-04-09T01:27:14.300Z,20.00
2018-04-09T01:28:14.411Z,26.00
2018-04-09T01:29:14.310Z,22.10
2018-04-09T01:30:14.429Z,19.70
2018-04-09T01:31:14.352Z,22.40
2018-04-09T01:32:14.447Z,21.40
2018-04-09T01:33:14.354Z,21.30
2018-04-09T01:34:15.482Z,22.40
2018-04-09T01:35:14.378Z,24.50
2018-04-09T01:36:14.585Z,25.70
2018-04-09T01:37:14.404Z,26.80
2018-04-09T01:38:14.598Z,23.00
2018-04-09T01:39:14.428Z,26.10
2018-04-09T01:40:14.599Z,26.80
2018-04-09T01:41:14.488Z,22.40
2018-04-09T01:42:14.613Z,23.80
2018-04-09T01:43:14.480Z,21.60
2018-04-09T01:44:14.631Z,21.40
2018-04-09T01:45:14.504Z,24.80
2018-04-09T01:46:14.639Z,25.70
2018-04-09T01:47:14.532Z,24.10
2018-04-09T01:48:14.655Z,24.20
2018-04-09T01:49:14.557Z,22.60
2018-04-09T01:50:14.667Z,21.40
2018-04-09T01:51:14.597Z,28.80
2018-04-09T01:52:14.685Z,29.30
2018-04-09T01:53:14.598Z,21.30
2018-04-09T01:54:14.801Z,22.30
2018-04-09T01:55:14.624Z,24.10
2018-04-09T01:56:14.812Z,24.30
2018-04-09T01:57:14.650Z,23.50
2018-04-09T01:58:14.826Z,23.80
2018-04-09T01:59:14.674Z,24.40
2018-04-09T02:00:14.839Z,23.40
2018-04-09T02:01:14.713Z,27.00
2018-04-09T02:02:14.856Z,21.70
2018-04-09T02:03:14.724Z,20.80
2018-04-09T02:04:14.871Z,22.30
2018-04-09T02:05:14.746Z,25.20
2018-04-09T02:06:14.880Z,26.10
2018-04-09T02:07:14.770Z,22.00
2018-04-09T02:08:14.892Z,22.30
2018-04-09T02:09:14.797Z,23.60
2018-04-09T02:10:14.905Z,23.40
2018-04-09T02:11:14.834Z,23.30
2018-04-09T02:12:15.024Z,24.10
2018-04-09T02:13:14.847Z,23.30
2018-04-09T02:14:15.040Z,25.80
2018-04-09T02:15:14.880Z,23.70
2018-04-09T02:16:15.052Z,25.40
2018-04-09T02:17:14.886Z,26.80
2018-04-09T02:18:15.061Z,25.20
2018-04-09T02:19:14.911Z,29.60
2018-04-09T02:20:15.083Z,23.60
2018-04-09T02:21:14.936Z,24.10
2018-04-09T02:22:15.089Z,21.80
2018-04-09T02:23:14.979Z,26.10
2018-04-09T02:24:15.116Z,24.70
2018-04-09T02:25:14.986Z,24.00
2018-04-09T02:26:15.072Z,21.40
2018-04-09T02:27:15.018Z,27.20
2018-04-09T02:28:15.086Z,21.90
2018-04-09T02:29:15.040Z,21.10
2018-04-09T02:30:15.208Z,25.70
2018-04-09T02:31:15.070Z,24.70
2018-04-09T02:32:15.224Z,26.90
2018-04-09T02:33:15.091Z,23.90
2018-04-09T02:34:15.230Z,24.50
2018-04-09T02:35:15.120Z,21.40
2018-04-09T02:36:15.246Z,26.20
2018-04-09T02:37:15.135Z,23.60
2018-04-09T02:38:15.257Z,22.30
2018-04-09T02:39:15.164Z,28.80
2018-04-09T02:40:15.376Z,26.30
2018-04-09T02:41:15.195Z,23.10
2018-04-09T02:42:15.294Z,21.80
2018-04-09T02:43:15.203Z,25.90
2018-04-09T02:44:15.316Z,26.40
2018-04-09T02:45:15.226Z,28.40
2018-04-09T02:46:15.298Z,23.50
2018-04-09T02:47:15.252Z,25.90
2018-04-09T02:48:15.414Z,22.40
2018-04-09T02:49:15.280Z,24.70
2018-04-09T02:50:15.428Z,24.30
2018-04-09T02:51:15.301Z,24.80
2018-04-09T02:52:15.442Z,23.40
2018-04-09T02:53:15.325Z,19.90
2018-04-09T02:54:15.454Z,23.00
2018-04-09T02:55:15.346Z,20.90
2018-04-09T02:56:15.492Z,20.20
2018-04-09T02:57:15.370Z,21.40
2018-04-09T02:58:15.481Z,23.50
2018-04-09T02:59:15.396Z,22.20
2018-04-09T03:00:15.505Z,22.50
2018-04-09T03:01:15.435Z,23.30
2018-04-09T03:02:15.510Z,22.00
2018-04-09T03:03:15.438Z,21.40
2018-04-09T03:04:15.529Z,21.90
2018-04-09T03:05:15.461Z,22.40
2018-04-09T03:06:15.546Z,22.20
2018-04-09T03:07:15.490Z,21.10
2018-04-09T03:08:15.664Z,25.50
2018-04-09T03:09:15.522Z,25.30
2018-04-09T03:10:15.675Z,23.70
2018-04-09T03:11:15.535Z,28.40
2018-04-09T03:12:15.690Z,24.50
2018-04-09T03:13:15.564Z,24.10
2018-04-09T03:14:15.701Z,25.00
2018-04-09T03:15:15.583Z,23.50
2018-04-09T03:16:15.721Z,21.90
2018-04-09T03:17:15.605Z,21.40
2018-04-09T03:18:15.726Z,31.40
2018-04-09T03:19:15.641Z,22.80
2018-04-09T03:20:15.741Z,22.20
2018-04-09T03:21:15.681Z,21.10
2018-04-09T03:22:15.749Z,20.00
2018-04-09T03:23:15.677Z,21.40
2018-04-09T03:24:15.765Z,22.40
2018-04-09T03:25:15.701Z,21.50
2018-04-09T03:26:15.778Z,25.50
2018-04-09T03:27:15.763Z,26.60
2018-04-09T03:28:15.917Z,25.30
2018-04-09T03:29:15.746Z,25.00
2018-04-09T03:30:15.906Z,29.00
2018-04-09T03:31:15.776Z,22.80
2018-04-09T03:32:15.917Z,27.80
2018-04-09T03:33:15.799Z,30.60
2018-04-09T03:34:15.928Z,28.20
2018-04-09T03:35:15.817Z,36.20
2018-04-09T03:36:15.961Z,31.50
2018-04-09T03:37:15.843Z,29.60
2018-04-09T03:38:15.962Z,33.40
2018-04-09T03:39:15.866Z,25.70
2018-04-09T03:40:16.038Z,29.90
2018-04-09T03:41:15.890Z,33.70
2018-04-09T03:42:15.986Z,25.30
2018-04-09T03:43:15.918Z,25.70
2018-04-09T03:44:16.015Z,29.40
2018-04-09T03:45:15.933Z,26.60
2018-04-09T03:46:16.139Z,30.40
2018-04-09T03:47:15.952Z,27.10
2018-04-09T03:48:16.158Z,24.10
2018-04-09T03:49:15.988Z,25.10
2018-04-09T03:50:16.144Z,23.10
2018-04-09T03:51:16.005Z,24.20
2018-04-09T03:52:16.161Z,28.10
2018-04-09T03:53:16.021Z,29.40
2018-04-09T03:54:16.180Z,29.00
2018-04-09T03:55:16.054Z,23.10
2018-04-09T03:56:16.187Z,34.60
2018-04-09T03:57:16.067Z,28.10
2018-04-09T03:58:16.251Z,31.50
2018-04-09T03:59:16.097Z,34.40
2018-04-09T04:00:16.219Z,29.50
2018-04-09T04:01:16.119Z,26.20
2018-04-09T04:02:16.232Z,29.40
2018-04-09T04:03:16.139Z,29.10
2018-04-09T04:04:16.248Z,27.40
2018-04-09T04:05:16.166Z,26.90
2018-04-09T04:06:16.359Z,26.00
2018-04-09T04:07:16.186Z,28.80
2018-04-09T04:08:16.368Z,25.80
2018-04-09T04:09:16.208Z,29.70
2018-04-09T04:10:16.389Z,26.80
2018-04-09T04:11:16.236Z,26.80
2018-04-09T04:12:16.484Z,25.80
2018-04-09T04:13:16.257Z,23.90
2018-04-09T04:14:16.396Z,23.90
2018-04-09T04:15:16.277Z,23.60
2018-04-09T04:16:16.412Z,29.00
2018-04-09T04:17:16.306Z,26.00
2018-04-09T04:18:16.422Z,22.50
2018-04-09T04:19:16.327Z,24.20
2018-04-09T04:20:16.450Z,23.70
2018-04-09T04:21:16.345Z,27.60
2018-04-09T04:22:16.454Z,26.30
2018-04-09T04:23:16.370Z,27.10
2018-04-09T04:24:16.464Z,24.00
2018-04-09T04:25:16.393Z,24.10
2018-04-09T04:26:17.512Z,26.50
2018-04-09T04:27:16.419Z,23.90
2018-04-09T04:28:16.594Z,29.20
2018-04-09T04:29:16.438Z,29.70
2018-04-09T04:30:16.610Z,27.80
2018-04-09T04:31:16.463Z,28.80
2018-04-09T04:32:16.621Z,29.20
2018-04-09T04:33:16.491Z,26.80
2018-04-09T04:34:17.661Z,31.30
2018-04-09T04:35:16.506Z,35.30
2018-04-09T04:36:16.652Z,30.60
2018-04-09T04:37:16.529Z,39.90
2018-04-09T04:38:16.665Z,38.50
2018-04-09T04:39:16.596Z,33.60
2018-04-09T04:40:16.679Z,28.30
2018-04-09T04:41:16.571Z,30.50
2018-04-09T04:42:16.705Z,31.40
2018-04-09T04:43:16.608Z,29.50
2018-04-09T04:44:16.704Z,33.00
2018-04-09T04:45:16.622Z,29.90
2018-04-09T04:46:16.720Z,27.20
2018-04-09T04:47:16.642Z,26.30
2018-04-09T04:48:16.821Z,29.10
2018-04-09T04:49:16.680Z,30.40
2018-04-09T04:50:16.830Z,36.70
2018-04-09T04:51:16.682Z,34.60
2018-04-09T04:52:16.808Z,31.40
2018-04-09T04:53:16.710Z,31.60
2018-04-09T04:54:16.821Z,52.30
2018-04-09T04:55:16.738Z,36.90
2018-04-09T04:56:16.855Z,35.40
2018-04-09T04:57:16.773Z,36.20
2018-04-09T04:58:16.878Z,34.90
2018-04-09T04:59:16.776Z,32.20
2018-04-09T06:03:42.678Z,43.30
2018-04-09T06:04:42.570Z,45.00
2018-04-09T06:05:42.458Z,47.80
2018-04-09T06:06:42.482Z,45.20
2018-04-09T06:07:42.481Z,44.90
2018-04-09T06:08:42.490Z,49.20
2018-04-09T06:09:42.502Z,52.60
2018-04-09T06:10:42.529Z,48.70
2018-04-09T06:11:42.555Z,55.30
2018-04-09T06:12:42.566Z,53.80
2018-04-09T06:13:42.541Z,52.80
2018-04-09T06:14:42.561Z,67.40
2018-04-09T06:15:42.572Z,57.90
2018-04-09T06:16:42.587Z,51.90
2018-04-09T06:17:42.587Z,54.60
2018-04-09T06:18:42.602Z,58.00
2018-04-09T06:19:42.610Z,56.30
2018-04-09T06:20:42.685Z,60.80
2018-04-09T06:21:42.630Z,54.00
2018-04-09T06:22:42.680Z,54.90
2018-04-09T06:23:42.778Z,52.50
2018-04-09T06:24:42.667Z,62.90
2018-04-09T06:25:42.891Z,56.10
2018-04-09T06:26:42.745Z,57.50
2018-04-09T06:27:42.919Z,62.00
2018-04-09T06:28:42.764Z,57.50
2018-04-09T06:29:42.934Z,57.30
2018-04-09T06:30:42.729Z,54.60
2018-04-09T06:31:42.930Z,60.10
2018-04-09T06:32:42.761Z,58.30
2018-04-09T06:33:42.944Z,57.90
2018-04-09T06:34:42.815Z,57.60
2018-04-09T06:35:42.858Z,58.30
2018-04-09T06:36:42.798Z,61.20
2018-04-09T06:37:42.872Z,59.90
2018-04-09T06:38:42.840Z,59.80
2018-04-09T06:39:42.886Z,54.10
2018-04-09T06:40:42.841Z,59.40
2018-04-09T06:41:42.909Z,56.10
2018-04-09T06:42:42.860Z,62.10
2018-04-09T06:43:42.912Z,57.40
2018-04-09T06:44:42.881Z,58.60
2018-04-09T06:45:42.927Z,57.20
2018-04-09T06:46:42.914Z,58.60
2018-04-09T06:47:43.142Z,58.20
2018-04-09T06:48:42.930Z,56.60
2018-04-09T06:49:43.063Z,56.00
2018-04-09T06:50:42.961Z,58.30
2018-04-09T06:51:43.990Z,56.10
2018-04-09T06:52:42.970Z,56.80
2018-04-09T06:53:43.087Z,62.90
2018-04-09T06:54:42.993Z,58.40
2018-04-09T06:55:43.093Z,61.80
2018-04-09T06:56:43.018Z,63.80
2018-04-09T06:57:43.131Z,57.60
2018-04-09T06:58:43.036Z,63.90
2018-04-09T06:59:43.142Z,60.00
2018-04-09T07:00:43.057Z,62.30
2018-04-09T07:01:43.134Z,63.60
2018-04-09T07:02:43.102Z,56.90
2018-04-09T07:03:43.180Z,62.10
2018-04-09T07:04:43.112Z,60.90
2018-04-09T07:05:43.176Z,59.00
2018-04-09T07:06:43.119Z,61.30
2018-04-09T07:07:43.175Z,59.20
2018-04-09T07:08:43.164Z,59.30
2018-04-09T07:09:43.296Z,58.00
2018-04-09T07:10:43.211Z,59.40
2018-04-09T07:11:43.306Z,58.90
2018-04-09T07:12:43.218Z,57.00
2018-04-09T07:13:43.317Z,49.80
2018-04-09T07:14:43.209Z,57.90
2018-04-09T07:15:44.360Z,56.30
2018-04-09T07:16:43.246Z,54.00
2018-04-09T07:17:43.347Z,53.00
2018-04-09T07:18:43.254Z,55.90
2018-04-09T07:19:43.361Z,53.80
2018-04-09T07:20:43.301Z,59.20
2018-04-09T07:21:43.372Z,58.80
2018-04-09T07:22:43.343Z,57.70
2018-04-09T07:23:43.391Z,59.00
2018-04-09T07:24:43.340Z,57.50
2018-04-09T07:25:43.401Z,59.80
2018-04-09T07:26:43.347Z,66.30
2018-04-09T07:27:43.412Z,64.50
2018-04-09T07:28:43.373Z,63.90
2018-04-09T07:29:43.445Z,59.60
2018-04-09T07:30:43.385Z,59.20
2018-04-09T07:31:43.441Z,61.10
2018-04-09T07:32:43.400Z,60.00
2018-04-09T07:33:43.590Z,57.90
2018-04-09T07:34:43.515Z,61.20
2018-04-09T07:35:43.570Z,58.50
2018-04-09T07:36:43.448Z,60.60
2018-04-09T07:37:43.586Z,58.70
2018-04-09T07:38:43.476Z,60.10
2018-04-09T07:39:43.601Z,61.10
2018-04-09T07:40:43.495Z,65.20
2018-04-09T07:41:43.610Z,59.40
2018-04-09T07:42:43.510Z,65.50
2018-04-09T07:43:43.629Z,63.80
2018-04-09T07:44:43.532Z,63.00
2018-04-09T07:45:43.537Z,65.60
2018-04-09T07:46:43.645Z,72.40
2018-04-09T07:47:43.571Z,64.40
2018-04-09T07:48:43.671Z,39.30
2018-04-09T07:49:43.587Z,40.20
2018-04-09T07:50:43.783Z,30.50
2018-04-09T07:51:43.639Z,64.40
2018-04-09T07:52:43.685Z,61.60
2018-04-09T07:53:43.639Z,66.70
2018-04-09T07:54:44.730Z,67.00
2018-04-09T07:55:43.656Z,72.20
2018-04-09T07:56:43.709Z,69.10
2018-04-09T07:57:43.672Z,65.30
2018-04-09T07:58:43.799Z,71.00
2018-04-09T07:59:43.703Z,67.50
2018-04-09T08:00:44.763Z,67.90
2018-04-09T08:01:43.736Z,68.20
2018-04-09T08:02:43.828Z,72.00
2018-04-09T08:03:43.731Z,71.00
2018-04-09T08:04:43.863Z,68.90
2018-04-09T08:05:43.754Z,72.70
2018-04-09T08:06:43.852Z,65.30
2018-04-09T08:07:43.785Z,70.90
2018-04-09T08:08:43.863Z,74.20
2018-04-09T08:09:43.795Z,69.30
2018-04-09T08:10:43.873Z,73.80
2018-04-09T08:11:43.827Z,74.00
2018-04-09T08:12:43.904Z,72.30
2018-04-09T08:13:43.847Z,73.60
2018-04-09T08:14:43.903Z,68.20
2018-04-09T08:15:43.869Z,70.30
2018-04-09T08:16:43.916Z,65.90
2018-04-09T08:17:43.887Z,72.50
2018-04-09T08:18:43.925Z,68.90
2018-04-09T08:19:43.908Z,65.20
2018-04-09T08:20:44.050Z,69.30
2018-04-09T08:21:43.923Z,66.60
2018-04-09T08:22:43.954Z,67.00
2018-04-09T08:23:43.968Z,68.10
2018-04-09T08:24:43.966Z,72.20
2018-04-09T08:25:43.979Z,67.40
2018-04-09T08:26:43.979Z,67.50
2018-04-09T08:27:43.993Z,69.00
2018-04-09T08:28:44.010Z,66.10
2018-04-09T08:29:44.011Z,68.90
2018-04-09T08:30:44.107Z,65.90
2018-04-09T08:31:44.069Z,70.30
2018-04-09T08:32:44.121Z,66.40
2018-04-09T08:33:44.061Z,69.50
2018-04-09T08:34:44.125Z,66.30
2018-04-09T08:35:44.081Z,70.90
2018-04-09T08:36:44.147Z,66.90
2018-04-09T08:37:44.120Z,74.00
2018-04-09T08:38:44.160Z,68.70
2018-04-09T08:39:44.183Z,70.70
2018-04-09T08:40:44.175Z,74.30
2018-04-09T08:47:44.203Z,72.90
2018-04-09T08:48:44.319Z,70.90
2018-04-09T08:49:44.232Z,72.90
2018-04-09T08:50:44.347Z,73.10
2018-04-09T08:51:44.252Z,72.90
2018-04-09T08:52:44.367Z,73.60
2018-04-09T08:53:44.302Z,70.40
2018-04-09T08:54:44.355Z,70.80
2018-04-09T08:55:44.295Z,73.20
2018-04-09T08:56:44.370Z,72.20
2018-04-09T08:57:44.316Z,71.30
2018-04-09T08:58:44.384Z,79.70
2018-04-09T08:59:44.340Z,76.00
2018-04-09T09:00:44.393Z,72.90
2018-04-09T09:01:44.371Z,73.50
2018-04-09T09:02:44.410Z,74.70
2018-04-09T09:03:44.383Z,74.70
2018-04-09T09:04:44.440Z,74.50
2018-04-09T09:05:44.463Z,71.60
2018-04-09T09:06:44.439Z,72.10
2018-04-09T09:07:44.435Z,70.80
2018-04-09T09:08:44.553Z,68.10
2018-04-09T09:09:44.513Z,73.40
2018-04-09T09:10:44.618Z,78.20
2018-04-09T09:11:44.490Z,74.20
2018-04-09T09:12:44.683Z,72.30
2018-04-09T09:13:44.513Z,68.90
2018-04-09T09:14:44.591Z,76.10
2018-04-09T09:15:44.534Z,73.20
2018-04-09T09:16:44.602Z,72.50
2018-04-09T09:17:44.566Z,75.60
2018-04-09T09:18:44.614Z,74.70
2018-04-09T09:19:44.601Z,72.80
2018-04-09T09:20:44.630Z,70.40
2018-04-09T09:21:44.613Z,79.60
2018-04-09T09:22:44.648Z,74.20
2018-04-09T09:23:44.635Z,83.10
2018-04-09T09:24:44.754Z,71.30
2018-04-09T09:25:44.657Z,69.60
2018-04-09T09:26:44.696Z,70.10
2018-04-09T09:27:44.693Z,77.70
2018-04-09T09:28:44.802Z,75.20
2018-04-09T09:29:44.915Z,73.30
2018-04-09T09:30:44.722Z,76.20
2018-04-09T09:31:44.735Z,73.60
2018-04-09T09:32:44.750Z,71.60
2018-04-09T09:33:45.808Z,71.40
2018-04-09T09:34:44.780Z,76.40
2018-04-09T09:35:44.899Z,73.00
2018-04-09T09:36:44.803Z,74.90
2018-04-09T09:37:44.916Z,72.70
2018-04-09T09:38:44.831Z,72.00
2018-04-09T09:39:44.926Z,72.50
2018-04-09T09:40:44.848Z,75.20
2018-04-09T09:41:45.042Z,78.70
2018-04-09T09:42:44.874Z,73.60
2018-04-09T09:43:45.058Z,72.10
2018-04-09T09:44:44.889Z,74.50
2018-04-09T09:45:45.066Z,75.70
2018-04-09T09:46:44.927Z,74.90
2018-04-09T09:47:45.083Z,73.30
2018-04-09T09:48:44.947Z,72.40
2018-04-09T09:49:45.205Z,73.00
2018-04-09T09:50:44.976Z,75.10
2018-04-09T09:51:45.110Z,76.80
2018-04-09T09:52:45.003Z,69.30
2018-04-09T09:53:45.130Z,73.10
2018-04-09T09:54:45.024Z,76.30
2018-04-09T09:55:45.138Z,72.50
2018-04-09T09:56:45.048Z,72.30
2018-04-09T09:57:45.248Z,68.90
2018-04-09T09:58:45.075Z,77.20
2018-04-09T09:59:45.263Z,68.90
2018-04-09T10:00:45.099Z,69.90
2018-04-09T10:01:45.281Z,75.70
2018-04-09T10:02:45.124Z,70.40
2018-04-09T10:03:45.290Z,70.60
2018-04-09T10:04:45.146Z,71.90
2018-04-09T10:05:45.309Z,69.70
2018-04-09T10:06:45.175Z,69.00
2018-04-09T10:07:45.330Z,73.40
2018-04-09T10:08:45.203Z,73.90
2018-04-09T10:09:45.333Z,72.00
2018-04-09T10:10:45.227Z,68.60
2018-04-09T10:11:45.348Z,72.50
2018-04-09T10:12:45.248Z,69.40
2018-04-09T10:13:45.381Z,73.10
2018-04-09T10:14:45.272Z,66.10
2018-04-09T10:15:45.478Z,71.10
2018-04-09T10:16:45.298Z,70.90
2018-04-09T10:17:45.490Z,70.80
2018-04-09T10:18:45.326Z,72.80
2018-04-09T10:19:45.340Z,66.90
2018-04-09T10:20:45.353Z,67.40
2018-04-09T10:21:45.517Z,67.80
2018-04-09T10:22:45.379Z,64.90
2018-04-09T10:23:45.534Z,71.30
2018-04-09T10:24:45.402Z,73.10
2018-04-09T10:25:45.552Z,68.70
2018-04-09T10:26:45.433Z,71.60
2018-04-09T10:27:45.468Z,70.60
2018-04-09T10:28:45.466Z,72.00
2018-04-09T10:29:45.482Z,68.80
2018-04-09T10:30:45.481Z,68.70
2018-04-09T10:31:45.598Z,68.20
2018-04-09T10:32:45.502Z,72.70
2018-04-09T10:33:45.615Z,70.10
2018-04-09T10:34:45.541Z,69.40
2018-04-09T10:35:45.676Z,71.70
2018-04-09T10:36:45.555Z,69.00
2018-04-09T10:37:45.634Z,71.30
2018-04-09T10:38:45.583Z,70.20
2018-04-09T10:39:45.648Z,72.10
2018-04-09T10:40:45.609Z,65.00
2018-04-09T10:41:45.663Z,69.90
2018-04-09T10:42:45.642Z,69.20
2018-04-09T10:43:45.673Z,71.20
2018-04-09T10:44:45.661Z,68.60
2018-04-09T10:45:45.688Z,71.70
2018-04-09T10:46:45.688Z,68.30
2018-04-09T10:47:45.806Z,66.70
2018-04-09T10:48:45.709Z,66.00
2018-04-09T10:49:45.857Z,69.00
2018-04-09T10:50:45.741Z,65.40
2018-04-09T10:51:45.826Z,65.70
2018-04-09T10:52:45.763Z,65.00
2018-04-09T10:53:45.860Z,67.20
2018-04-09T10:54:45.815Z,65.10
2018-04-09T10:55:45.874Z,67.50
2018-04-09T10:56:45.818Z,67.40
2018-04-09T10:57:45.863Z,67.70
2018-04-09T10:58:45.870Z,65.40
2018-04-09T10:59:45.884Z,66.60
2018-04-09T11:00:45.866Z,70.90
2018-04-09T11:01:45.894Z,67.00
2018-04-09T11:02:45.892Z,68.80
2018-04-09T11:03:46.008Z,67.40
2018-04-09T11:04:45.930Z,64.80
2018-04-09T11:05:46.020Z,69.90
2018-04-09T11:06:45.944Z,66.60
2018-04-09T11:07:47.986Z,67.30
2018-04-09T11:08:45.972Z,65.10
2018-04-09T11:09:46.053Z,63.70
2018-04-09T11:10:45.998Z,67.70
2018-04-09T11:11:46.104Z,69.10
2018-04-09T11:12:46.022Z,68.80
2018-04-09T11:13:46.084Z,61.40
2018-04-09T11:14:46.257Z,65.70
2018-04-09T11:15:46.093Z,69.90
2018-04-09T11:16:46.078Z,62.00
2018-04-09T11:17:46.104Z,66.30
2018-04-09T11:18:46.104Z,62.80
2018-04-09T11:19:46.227Z,65.00
2018-04-09T11:20:46.129Z,63.70
2018-04-09T11:21:46.232Z,66.30
2018-04-09T11:22:46.175Z,69.40
2018-04-09T11:23:46.245Z,63.10
2018-04-09T11:24:46.183Z,63.30
2018-04-09T11:25:46.194Z,66.20
2018-04-09T11:26:46.276Z,63.20
2018-04-09T11:27:46.223Z,68.90
2018-04-09T11:28:46.281Z,70.30
2018-04-09T11:29:46.296Z,68.90
2018-04-09T11:30:46.282Z,69.20
2018-04-09T11:31:46.290Z,63.10
2018-04-09T11:32:46.307Z,63.90
2018-04-09T11:33:46.304Z,63.40
2018-04-09T11:34:46.417Z,63.40
2018-04-09T11:35:46.327Z,65.50
2018-04-09T11:36:46.435Z,65.70
2018-04-09T11:37:46.353Z,64.70
2018-04-09T11:38:46.450Z,63.40
2018-04-09T11:39:46.385Z,64.80
2018-04-09T11:40:46.460Z,67.00
2018-04-09T11:41:46.412Z,64.40
2018-04-09T11:42:46.474Z,62.80
2018-04-09T11:43:46.756Z,64.90
2018-04-09T11:44:46.448Z,63.20
2018-04-09T11:45:46.482Z,58.70
2018-04-09T11:46:46.472Z,63.10
2018-04-09T11:47:46.493Z,67.40
2018-04-09T11:48:46.533Z,65.30
2018-04-09T11:49:46.518Z,64.50
2018-04-09T11:50:46.533Z,63.40
2018-04-09T11:51:46.541Z,63.70
2018-04-09T11:52:46.677Z,64.20
2018-04-09T11:53:46.566Z,61.70
2018-04-09T11:54:46.767Z,62.00
2018-04-09T11:55:46.593Z,64.70
2018-04-09T11:56:46.705Z,63.90
2018-04-09T11:58:07.657Z,65.80
2018-04-09T11:58:46.648Z,65.20
2018-04-09T11:59:46.681Z,62.60
2018-04-09T12:00:46.657Z,61.90
2018-04-09T12:01:46.694Z,65.40
2018-04-09T12:02:46.724Z,64.10
2018-04-09T12:03:46.806Z,63.60
2018-04-09T12:04:46.721Z,67.30
2018-04-09T12:05:46.828Z,64.20
2018-04-09T12:06:46.740Z,64.50
2018-04-09T12:07:46.836Z,60.70
2018-04-09T12:08:46.764Z,63.50
2018-04-09T12:09:46.855Z,66.20
2018-04-09T12:10:46.806Z,68.00
2018-04-09T12:11:46.863Z,71.90
2018-04-09T12:12:46.823Z,60.40
2018-04-09T12:13:46.942Z,61.10
2018-04-09T12:14:46.878Z,64.90
2018-04-09T12:15:46.893Z,61.60
2018-04-09T12:16:46.874Z,65.10
2018-04-09T12:17:46.908Z,62.90
2018-04-09T12:18:46.915Z,66.30
2018-04-09T12:19:47.051Z,63.00
2018-04-09T12:20:46.920Z,60.40
2018-04-09T12:21:47.036Z,62.60
2018-04-09T12:22:46.953Z,66.40
2018-04-09T12:23:47.045Z,63.40
2018-04-09T12:24:46.977Z,67.10
2018-04-09T12:25:47.061Z,64.40
2018-04-09T12:26:47.011Z,64.70
2018-04-09T12:27:47.070Z,63.80
2018-04-09T12:28:47.038Z,65.10
2018-04-09T12:29:47.084Z,64.40
2018-04-09T12:30:47.060Z,68.20
2018-04-09T12:31:47.116Z,60.90
2018-04-09T12:32:47.092Z,64.70
2018-04-09T12:33:47.221Z,63.90
2018-04-09T12:34:47.125Z,63.80
2018-04-09T12:35:47.226Z,61.10
2018-04-09T12:36:47.151Z,64.70
2018-04-09T12:37:47.296Z,63.70
2018-04-09T12:38:47.172Z,62.10
2018-04-09T12:39:47.254Z,60.10
2018-04-09T12:40:47.214Z,61.60
2018-04-09T12:41:47.269Z,63.00
2018-04-09T12:42:47.221Z,64.50
2018-04-09T12:43:47.297Z,63.70
2018-04-09T12:44:47.250Z,63.10
2018-04-09T12:45:47.401Z,61.60
2018-04-09T12:46:47.282Z,61.60
2018-04-09T12:47:47.416Z,65.00
2018-04-09T12:48:47.321Z,61.50
2018-04-09T12:49:47.428Z,64.40
2018-04-09T12:50:47.353Z,63.40
2018-04-09T12:51:47.446Z,62.20
2018-04-09T12:52:47.361Z,63.70
2018-04-09T12:53:52.179Z,61.90
2018-04-09T12:54:47.397Z,64.00
2018-04-09T12:55:47.465Z,71.70
2018-04-09T12:56:47.413Z,62.30
2018-04-09T12:57:54.181Z,66.30
2018-04-09T12:58:47.431Z,62.80
2018-04-09T12:59:48.515Z,67.00
2018-04-09T13:00:47.464Z,67.20
2018-04-09T13:01:47.494Z,68.40
2018-04-09T13:02:47.493Z,65.20
2018-04-09T13:03:47.635Z,68.90
2018-04-09T13:04:47.534Z,68.80
2018-04-09T13:05:47.534Z,67.30
2018-04-09T13:06:47.544Z,65.80
2018-04-09T13:07:47.637Z,68.00
2018-04-09T13:08:47.571Z,69.40
2018-04-09T13:09:47.658Z,64.50
2018-04-09T13:10:47.624Z,64.20
2018-04-09T13:11:47.654Z,67.30
2018-04-09T13:12:47.623Z,67.70
2018-04-09T13:13:47.670Z,69.80
2018-04-09T13:14:47.653Z,63.70
2018-04-09T13:15:47.690Z,67.50
2018-04-09T13:16:47.699Z,67.10
2018-04-09T13:17:49.701Z,68.70
2018-04-09T13:18:47.729Z,65.30
2018-04-09T13:19:48.844Z,68.20
2018-04-09T13:20:47.737Z,71.60
2018-04-09T13:21:49.781Z,66.40
2018-04-09T13:22:47.761Z,65.70
2018-04-09T13:23:47.893Z,66.30
2018-04-09T13:24:47.790Z,69.00
2018-04-09T13:25:47.804Z,67.80
2018-04-09T13:26:48.904Z,64.80
2018-04-09T13:27:47.831Z,64.20
2018-04-09T13:28:47.994Z,69.20
2018-04-09T13:29:47.859Z,67.50
2018-04-09T13:30:47.946Z,65.70
2018-04-09T13:31:47.902Z,70.80
2018-04-09T13:32:47.896Z,68.50
2018-04-09T13:33:47.909Z,66.60
2018-04-09T13:34:47.924Z,66.70
2018-04-09T13:35:48.018Z,71.00
2018-04-09T13:36:47.956Z,68.80
2018-04-09T13:37:47.964Z,70.10
2018-04-09T13:38:47.983Z,69.20
2018-04-09T13:39:48.004Z,71.30
2018-04-09T13:40:48.006Z,67.90
2018-04-09T13:41:48.023Z,65.70
2018-04-09T13:42:48.035Z,66.40
2018-04-09T13:43:48.053Z,69.10
2018-04-09T13:44:48.062Z,68.80
2018-04-09T13:45:48.087Z,73.30
2018-04-09T13:46:48.216Z,72.30
2018-04-09T13:47:48.128Z,70.00
2018-04-09T13:48:48.128Z,68.20
2018-04-09T13:49:48.143Z,71.70
2018-04-09T13:50:48.144Z,67.70
2018-04-09T13:51:48.154Z,72.30
2018-04-09T13:52:48.180Z,69.70
2018-04-09T13:53:48.217Z,70.10
2018-04-09T13:54:48.203Z,67.60
2018-04-09T13:55:48.214Z,67.40
2018-04-09T13:56:48.224Z,68.10
2018-04-09T13:57:48.295Z,71.30
2018-04-09T13:58:48.254Z,76.40
2018-04-09T13:59:48.403Z,70.20
2018-04-09T14:00:48.287Z,69.20
2018-04-09T14:01:48.402Z,66.60